Time;durP1;ratioP1;P1;durP2;ratioP2;P2;SDS_P1;SDS_P2;PMS_P1;PMS_P2;Temp;Humidity;BMP_temperature;BMP_pressure;BME280_temperature;BME280_humidity;BME280_pressure;Samples;Min_cycle;Max_cycle;Signal;HPM_P1;HPM_P2
2023/01/11 00:01:56;;;;;;;3.63;1.30;;;;;3.50;94042.00;;;;7399724;19;20213;-78
2023/01/11 00:04:29;;;;;;;3.97;1.20;;;;;3.40;94049.00;;;;7398957;19;20148;-76
2023/01/11 00:07:10;;;;;;;3.30;0.93;;;;;3.40;94048.00;;;;7398057;19;20643;-75
2023/01/11 00:09:37;;;;;;;3.83;1.20;;;;;3.50;94047.00;;;;7397214;19;20125;-77
2023/01/11 00:12:14;;;;;;;2.83;1.47;;;;;3.50;94038.00;;;;7399756;19;20192;-76
2023/01/11 00:14:48;;;;;;;2.03;1.40;;;;;3.50;94046.00;;;;7398088;19;20133;-76
2023/01/11 00:17:22;;;;;;;5.60;1.30;;;;;3.40;94039.00;;;;7394850;19;20611;-76
2023/01/11 00:19:49;;;;;;;3.37;1.40;;;;;3.40;94038.00;;;;7399056;19;20131;-76
2023/01/11 00:22:18;;;;;;;1.50;1.20;;;;;3.40;94033.00;;;;7397586;19;20224;-77
2023/01/11 00:24:53;;;;;;;2.67;1.00;;;;;3.50;94026.00;;;;7397953;19;20199;-76
2023/01/11 00:27:20;;;;;;;3.30;1.03;;;;;3.40;94014.00;;;;7397936;19;20148;-77
2023/01/11 00:29:54;;;;;;;2.43;1.40;;;;;3.20;94017.00;;;;7398713;19;20579;-78
2023/01/11 00:32:23;;;;;;;4.97;1.40;;;;;3.00;94013.00;;;;7396776;19;20165;-78
2023/01/11 00:35:00;;;;;;;3.77;1.30;;;;;3.20;94017.00;;;;7398541;19;20160;-74
2023/01/11 00:37:33;;;;;;;5.33;1.40;;;;;3.00;94010.00;;;;7397062;19;20125;-76
2023/01/11 00:40:01;;;;;;;5.13;1.50;;;;;3.10;94014.00;;;;7397808;19;20129;-77
2023/01/11 00:48:14;;;;;;;5.03;1.37;;;;;3.00;93999.00;;;;7396221;19;20133;-76
2023/01/11 00:50:52;;;;;;;6.73;1.60;;;;;3.00;93991.00;;;;7398709;19;20133;-77
2023/01/11 00:53:20;;;;;;;3.63;1.50;;;;;3.10;93988.00;;;;7393003;19;20611;-77
2023/01/11 00:55:53;;;;;;;1.50;1.20;;;;;3.10;93984.00;;;;7393013;19;20145;-77
2023/01/11 00:58:23;;;;;;;1.93;0.90;;;;;3.20;93993.00;;;;7397166;19;20156;-76
2023/01/11 01:00:57;;;;;;;2.90;1.30;;;;;3.20;93986.00;;;;7405186;19;20132;-76
2023/01/11 01:03:32;;;;;;;2.40;1.10;;;;;3.50;93985.00;;;;7401672;19;20172;-77
2023/01/11 01:06:20;;;;;;;5.27;1.63;;;;;3.60;93981.00;;;;7401665;19;20614;-76
2023/01/11 01:08:49;;;;;;;4.50;1.17;;;;;3.40;93973.00;;;;7404268;19;20172;-77
2023/01/11 01:11:24;;;;;;;3.37;1.03;;;;;3.30;93974.00;;;;7403924;19;20156;-76
2023/01/11 01:16:46;;;;;;;4.00;1.20;;;;;3.20;93979.00;;;;7405098;19;20129;-78
2023/01/11 01:19:22;;;;;;;7.40;1.23;;;;;3.00;93982.00;;;;7403638;19;20133;-77
2023/01/11 01:21:50;;;;;;;1.93;1.20;;;;;2.80;93973.00;;;;7402426;19;20139;-77
2023/01/11 01:24:24;;;;;;;1.77;1.27;;;;;2.70;93975.00;;;;7405001;19;20200;-76
2023/01/11 01:26:57;;;;;;;4.77;1.53;;;;;2.70;93989.00;;;;7402620;19;20164;-78
2023/01/11 01:29:31;;;;;;;3.53;1.50;;;;;2.60;93981.00;;;;7399324;19;20145;-76
2023/01/11 01:31:58;;;;;;;4.93;1.60;;;;;2.70;93980.00;;;;7403869;19;20169;-75
2023/01/11 01:34:36;;;;;;;2.47;1.40;;;;;2.80;93982.00;;;;7400823;19;20473;-78
2023/01/11 01:37:08;;;;;;;5.30;1.60;;;;;2.60;93971.00;;;;7402549;19;20164;-76
2023/01/11 01:39:45;;;;;;;5.77;1.60;;;;;2.40;93973.00;;;;7403378;19;20129;-77
2023/01/11 01:42:20;;;;;;;6.17;1.60;;;;;2.50;93979.00;;;;7402315;19;20152;-77
2023/01/11 01:44:59;;;;;;;3.40;1.60;;;;;2.70;93966.00;;;;7402403;19;20133;-77
2023/01/11 01:47:33;;;;;;;6.20;1.57;;;;;2.70;93966.00;;;;7404016;19;20160;-76
2023/01/11 01:50:20;;;;;;;3.70;1.37;;;;;2.60;93965.00;;;;7401496;19;20152;-75
2023/01/11 01:52:59;;;;;;;6.00;1.80;;;;;2.50;93962.00;;;;7402107;19;20140;-77
2023/01/11 01:55:33;;;;;;;3.43;1.33;;;;;2.50;93958.00;;;;7403989;19;20145;-75
2023/01/11 01:58:15;;;;;;;2.50;1.43;;;;;2.80;93976.00;;;;7403192;19;20131;-78
2023/01/11 02:00:49;;;;;;;4.73;1.27;;;;;2.80;93966.00;;;;7404252;19;20125;-74
2023/01/11 02:03:30;;;;;;;3.90;1.50;;;;;3.10;93954.00;;;;7395350;19;20192;-74
2023/01/11 02:06:04;;;;;;;3.00;1.20;;;;;3.30;93954.00;;;;7401237;19;20186;-75
2023/01/11 02:08:37;;;;;;;3.60;1.40;;;;;3.40;93945.00;;;;7401586;19;20600;-75
2023/01/11 02:11:30;;;;;;;5.83;1.47;;;;;3.60;93946.00;;;;7398844;19;20154;-75
2023/01/11 02:14:09;;;;;;;4.77;1.30;;;;;3.90;93940.00;;;;7399556;19;20502;-74
2023/01/11 02:16:58;;;;;;;4.23;1.17;;;;;3.90;93928.00;;;;7398557;19;20148;-74
2023/01/11 02:19:56;;;;;;;3.83;1.30;;;;;4.10;93947.00;;;;7399839;19;20148;-75
2023/01/11 02:22:54;;;;;;;1.53;1.17;;;;;4.20;93942.00;;;;7399851;19;20607;-75
2023/01/11 02:26:01;;;;;;;2.03;1.10;;;;;4.20;93940.00;;;;7402152;19;20136;-75
2023/01/11 02:28:47;;;;;;;4.63;1.43;;;;;4.30;93927.00;;;;7401000;19;20587;-75
2023/01/11 02:31:40;;;;;;;2.93;1.23;;;;;4.30;93920.00;;;;7399285;19;20156;-74
2023/01/11 02:34:43;;;;;;;2.50;1.27;;;;;4.40;93910.00;;;;7398266;19;20149;-75
2023/01/11 02:37:49;;;;;;;1.97;1.20;;;;;4.40;93926.00;;;;7400679;19;20205;-75
2023/01/11 02:40:37;;;;;;;5.40;1.17;;;;;4.60;93922.00;;;;7399897;19;20145;-74
2023/01/11 02:46:45;;;;;;;4.43;1.50;;;;;4.90;93919.00;;;;7401229;19;20139;-75
2023/01/11 02:49:32;;;;;;;2.13;1.37;;;;;5.00;93921.00;;;;7400440;19;20475;-75
2023/01/11 02:52:25;;;;;;;7.30;1.73;;;;;5.00;93926.00;;;;7400935;19;20180;-75
2023/01/11 02:55:02;;;;;;;4.20;1.00;;;;;4.80;93920.00;;;;7396906;19;20169;-75
2023/01/11 02:57:41;;;;;;;4.47;1.30;;;;;4.70;93916.00;;;;7400006;19;20135;-75
2023/01/11 03:00:19;;;;;;;2.13;1.23;;;;;4.60;93920.00;;;;7397680;19;20163;-75
2023/01/11 03:03:08;;;;;;;1.87;1.20;;;;;4.70;93909.00;;;;7398793;19;20249;-75
2023/01/11 03:06:05;;;;;;;5.50;1.43;;;;;4.80;93911.00;;;;7397820;19;20156;-74
2023/01/11 03:09:16;;;;;;;2.30;1.60;;;;;4.70;93916.00;;;;7398559;19;20117;-75
2023/01/11 03:14:38;;;;;;;1.30;1.13;;;;;4.80;93913.00;;;;7397433;19;20160;-75
2023/01/11 03:17:32;;;;;;;1.27;1.00;;;;;4.90;93907.00;;;;7400083;19;20156;-75
2023/01/11 03:20:37;;;;;;;2.37;1.40;;;;;4.90;93902.00;;;;7399596;19;20129;-75
2023/01/11 03:23:32;;;;;;;2.67;1.30;;;;;4.90;93899.00;;;;7395619;19;20617;-75
2023/01/11 03:26:17;;;;;;;1.23;0.93;;;;;4.90;93892.00;;;;7398245;19;20125;-75
2023/01/11 03:29:37;;;;;;;1.20;1.10;;;;;4.60;93894.00;;;;7400116;19;20130;-74
2023/01/11 03:32:14;;;;;;;1.00;0.90;;;;;4.60;93895.00;;;;7399151;19;20222;-75
2023/01/11 03:35:04;;;;;;;2.77;1.20;;;;;4.60;93891.00;;;;7397473;19;20136;-74
2023/01/11 03:37:50;;;;;;;1.23;1.10;;;;;4.70;93899.00;;;;7398928;19;20140;-75
2023/01/11 03:40:29;;;;;;;1.67;1.10;;;;;4.90;93887.00;;;;7397262;19;20196;-75
2023/01/11 03:43:10;;;;;;;2.87;1.00;;;;;5.00;93887.00;;;;7397961;19;20141;-75
2023/01/11 03:46:05;;;;;;;1.10;1.00;;;;;5.00;93891.00;;;;7399202;19;20594;-75
2023/01/11 03:48:54;;;;;;;1.63;1.17;;;;;5.00;93879.00;;;;7398834;19;20123;-75
2023/01/11 03:51:32;;;;;;;2.50;1.00;;;;;5.20;93886.00;;;;7397338;19;20157;-75
2023/01/11 03:54:03;;;;;;;2.00;1.00;;;;;5.20;93878.00;;;;7398090;19;20594;-76
2023/01/11 03:56:40;;;;;;;2.03;1.03;;;;;5.30;93883.00;;;;7398130;19;20139;-74
2023/01/11 03:59:08;;;;;;;4.27;1.10;;;;;5.40;93881.00;;;;7397075;19;20594;-75
2023/01/11 04:01:43;;;;;;;2.87;0.83;;;;;5.40;93874.00;;;;7397542;19;20203;-76
2023/01/11 04:04:17;;;;;;;2.73;0.80;;;;;5.40;93883.00;;;;7394863;19;20228;-75
2023/01/11 04:06:51;;;;;;;2.10;1.00;;;;;5.50;93865.00;;;;7396865;19;20121;-75
2023/01/11 04:09:25;;;;;;;1.07;0.70;;;;;5.50;93866.00;;;;7384882;19;20157;-75
2023/01/11 04:11:59;;;;;;;0.80;0.60;;;;;5.30;93869.00;;;;7394307;19;20143;-75
2023/01/11 04:14:27;;;;;;;1.40;0.90;;;;;5.30;93886.00;;;;7396858;19;20238;-75
2023/01/11 04:17:02;;;;;;;1.37;0.67;;;;;5.30;93879.00;;;;7396414;19;20216;-76
2023/01/11 04:19:36;;;;;;;1.83;0.77;;;;;5.30;93873.00;;;;7397251;19;20144;-76
2023/01/11 04:22:10;;;;;;;2.13;0.87;;;;;5.40;93869.00;;;;7397335;19;20123;-75
2023/01/11 04:24:38;;;;;;;0.97;0.83;;;;;5.40;93861.00;;;;7397285;19;20122;-75
2023/01/11 04:27:11;;;;;;;1.83;0.80;;;;;5.40;93847.00;;;;7397847;19;20117;-75
2023/01/11 04:29:39;;;;;;;1.80;0.90;;;;;5.30;93849.00;;;;7397217;19;20594;-76
2023/01/11 04:32:13;;;;;;;1.23;0.90;;;;;5.30;93846.00;;;;7397681;19;20470;-75
2023/01/11 04:34:40;;;;;;;0.70;0.70;;;;;5.40;93842.00;;;;7396615;19;20156;-76
2023/01/11 04:37:16;;;;;;;0.63;0.60;;;;;5.50;93844.00;;;;7404533;19;20583;-76
2023/01/11 04:39:50;;;;;;;1.47;0.60;;;;;5.50;93843.00;;;;7403644;19;20147;-75
2023/01/11 04:42:17;;;;;;;1.07;0.70;;;;;5.50;93828.00;;;;7404145;19;20200;-75
2023/01/11 04:44:52;;;;;;;2.30;0.57;;;;;5.40;93819.00;;;;7404554;19;20129;-76
2023/01/11 04:47:22;;;;;;;0.70;0.60;;;;;5.60;93828.00;;;;7403572;19;20145;-75
2023/01/11 04:49:56;;;;;;;0.40;0.40;;;;;5.60;93826.00;;;;7403526;19;20212;-75
2023/01/11 04:52:26;;;;;;;1.17;0.60;;;;;5.70;93826.00;;;;7402373;19;20121;-75
2023/01/11 04:55:01;;;;;;;0.50;0.50;;;;;5.80;93821.00;;;;7401882;19;20144;-75
2023/01/11 04:57:35;;;;;;;0.20;0.20;;;;;5.90;93824.00;;;;7403916;19;20121;-76
2023/01/11 05:00:09;;;;;;;0.93;0.50;;;;;5.90;93834.00;;;;7401596;19;20617;-75
2023/01/11 05:02:50;;;;;;;0.47;0.40;;;;;5.90;93829.00;;;;7401067;19;20184;-76
2023/01/11 05:05:33;;;;;;;1.50;0.50;;;;;5.90;93821.00;;;;7403723;19;20129;-76
2023/01/11 05:08:09;;;;;;;0.40;0.40;;;;;6.00;93823.00;;;;7403929;19;20152;-76
2023/01/11 05:10:50;;;;;;;0.30;0.30;;;;;6.00;93817.00;;;;7402771;19;20140;-76
2023/01/11 05:13:41;;;;;;;2.13;0.43;;;;;6.10;93819.00;;;;7404171;19;20139;-76
2023/01/11 05:16:14;;;;;;;0.87;0.40;;;;;6.10;93814.00;;;;7401630;19;20121;-75
2023/01/11 05:18:51;;;;;;;0.37;0.37;;;;;6.20;93802.00;;;;7403991;19;20140;-76
2023/01/11 05:21:26;;;;;;;1.23;0.80;;;;;6.20;93816.00;;;;7402314;19;20147;-76
2023/01/11 05:24:01;;;;;;;1.40;0.30;;;;;6.30;93811.00;;;;7403426;19;20140;-75
2023/01/11 05:26:36;;;;;;;1.87;0.40;;;;;6.20;93821.00;;;;7402003;19;20124;-76
2023/01/11 05:29:20;;;;;;;2.10;0.50;;;;;6.30;93824.00;;;;7402150;19;20142;-76
2023/01/11 05:31:54;;;;;;;1.90;0.40;;;;;6.20;93820.00;;;;7403645;19;20133;-76
2023/01/11 05:34:21;;;;;;;0.97;0.40;;;;;6.40;93811.00;;;;7398624;19;20124;-76
2023/01/11 05:36:55;;;;;;;0.33;0.30;;;;;6.30;93814.00;;;;7402965;19;20234;-76
2023/01/11 05:39:29;;;;;;;0.30;0.30;;;;;6.20;93810.00;;;;7402984;19;20473;-76
2023/01/11 05:42:03;;;;;;;0.67;0.37;;;;;6.20;93812.00;;;;7401962;19;20129;-76
2023/01/11 05:47:25;;;;;;;0.57;0.40;;;;;6.30;93806.00;;;;7400630;19;20133;-76
2023/01/11 05:50:01;;;;;;;0.30;0.30;;;;;6.40;93802.00;;;;7402295;19;20132;-76
2023/01/11 05:52:29;;;;;;;0.40;0.40;;;;;6.20;93796.00;;;;7402497;19;20169;-76
2023/01/11 05:55:03;;;;;;;0.30;0.30;;;;;6.30;93791.00;;;;7399485;19;20140;-76
2023/01/11 05:57:41;;;;;;;0.80;0.50;;;;;6.10;93798.00;;;;7398681;19;20144;-76
2023/01/11 06:00:09;;;;;;;0.47;0.30;;;;;6.30;93798.00;;;;7399800;19;20165;-76
2023/01/11 06:02:43;;;;;;;0.27;0.27;;;;;6.40;93795.00;;;;7399967;19;20195;-76
2023/01/11 06:05:24;;;;;;;0.60;0.23;;;;;6.50;93796.00;;;;7401765;19;20147;-76
2023/01/11 06:07:53;;;;;;;0.30;0.30;;;;;6.50;93795.00;;;;7402650;19;20150;-76
2023/01/11 06:10:27;;;;;;;1.50;0.27;;;;;6.40;93801.00;;;;7401352;19;20589;-76
2023/01/11 06:13:25;;;;;;;0.93;0.30;;;;;6.50;93794.00;;;;7401962;19;20484;-76
2023/01/11 06:15:48;;;;;;;0.27;0.20;;;;;6.60;93801.00;;;;7396095;19;20583;-76
2023/01/11 06:18:15;;;;;;;0.30;0.30;;;;;6.60;93787.00;;;;7398291;19;20145;-76
2023/01/11 06:20:53;;;;;;;1.37;0.40;;;;;6.60;93782.00;;;;7401023;19;20127;-76
2023/01/11 06:23:27;;;;;;;0.10;0.10;;;;;6.60;93786.00;;;;7401536;19;20586;-76
2023/01/11 06:26:03;;;;;;;0.20;0.20;;;;;6.60;93783.00;;;;7401323;19;20140;-76
2023/01/11 06:28:31;;;;;;;0.40;0.30;;;;;6.70;93775.00;;;;7400382;19;20129;-76
2023/01/11 06:31:05;;;;;;;0.23;0.23;;;;;6.60;93773.00;;;;7399562;19;20176;-76
2023/01/11 06:33:33;;;;;;;0.60;0.30;;;;;6.60;93777.00;;;;7399930;19;20148;-75
2023/01/11 06:36:10;;;;;;;3.20;0.60;;;;;6.60;93787.00;;;;7399413;19;20124;-76
2023/01/11 06:38:37;;;;;;;0.20;0.20;;;;;6.50;93787.00;;;;7401164;19;20137;-76
2023/01/11 06:41:14;;;;;;;0.13;0.13;;;;;6.60;93793.00;;;;7399358;19;20144;-76
2023/01/11 06:43:50;;;;;;;0.27;0.27;;;;;6.50;93781.00;;;;7400828;19;20127;-76
2023/01/11 06:46:25;;;;;;;0.20;0.20;;;;;6.50;93782.00;;;;7401449;19;20172;-76
2023/01/11 06:49:03;;;;;;;0.60;0.30;;;;;6.60;93779.00;;;;7400977;19;20143;-76
2023/01/11 06:51:30;;;;;;;0.30;0.30;;;;;6.60;93771.00;;;;7400188;19;20129;-76
2023/01/11 06:54:04;;;;;;;0.20;0.10;;;;;6.50;93765.00;;;;7399068;19;20145;-76
2023/01/11 06:56:38;;;;;;;0.30;0.30;;;;;6.60;93769.00;;;;7397893;19;20584;-76
2023/01/11 06:59:14;;;;;;;2.67;0.60;;;;;6.60;93772.00;;;;7400752;19;20750;-76
2023/01/11 07:01:41;;;;;;;1.80;0.20;;;;;6.70;93766.00;;;;7397669;19;20606;-76
2023/01/11 07:04:12;;;;;;;1.43;0.30;;;;;6.60;93765.00;;;;7397490;19;20148;-76
2023/01/11 07:06:45;;;;;;;0.20;0.20;;;;;6.70;93774.00;;;;7400222;19;20479;-76
2023/01/11 07:09:20;;;;;;;0.53;0.33;;;;;6.60;93765.00;;;;7398993;19;20143;-76
2023/01/11 07:11:47;;;;;;;0.40;0.40;;;;;6.70;93768.00;;;;7400115;19;20192;-76
2023/01/11 07:14:23;;;;;;;0.63;0.37;;;;;6.80;93773.00;;;;7398559;19;20626;-77
2023/01/11 07:16:57;;;;;;;0.50;0.50;;;;;6.80;93770.00;;;;7393099;19;20156;-76
2023/01/11 07:19:25;;;;;;;0.40;0.30;;;;;7.00;93771.00;;;;7399276;19;20149;-76
2023/01/11 07:21:58;;;;;;;0.67;0.40;;;;;7.10;93774.00;;;;7398590;19;20207;-76
2023/01/11 07:24:32;;;;;;;0.33;0.30;;;;;7.20;93773.00;;;;7397368;19;20189;-76
2023/01/11 07:27:01;;;;;;;0.70;0.40;;;;;7.20;93773.00;;;;7397852;19;20155;-76
2023/01/11 07:29:35;;;;;;;0.43;0.43;;;;;7.30;93774.00;;;;7397578;19;20151;-76
2023/01/11 07:32:04;;;;;;;0.30;0.30;;;;;7.30;93781.00;;;;7398663;19;20608;-77
2023/01/11 07:34:37;;;;;;;1.40;0.50;;;;;7.30;93778.00;;;;7397148;19;20135;-76
2023/01/11 07:37:15;;;;;;;0.20;0.20;;;;;7.30;93774.00;;;;7397254;19;20132;-77
2023/01/11 07:39:55;;;;;;;0.50;0.40;;;;;7.40;93772.00;;;;7397431;19;20148;-76
2023/01/11 07:45:26;;;;;;;0.40;0.37;;;;;7.40;93762.00;;;;7396732;19;20117;-76
2023/01/11 07:48:11;;;;;;;0.40;0.30;;;;;7.40;93763.00;;;;7396193;19;20598;-77
2023/01/11 07:50:46;;;;;;;0.37;0.37;;;;;7.50;93759.00;;;;7393292;19;20132;-77
2023/01/11 07:53:13;;;;;;;0.40;0.40;;;;;7.50;93765.00;;;;7394417;19;20128;-76
2023/01/11 07:55:47;;;;;;;0.50;0.50;;;;;7.50;93769.00;;;;7394142;19;20594;-76
2023/01/11 07:58:15;;;;;;;0.40;0.40;;;;;7.50;93767.00;;;;7394824;19;20587;-76
2023/01/11 08:00:51;;;;;;;1.80;0.40;;;;;7.60;93760.00;;;;7394193;19;20204;-76
2023/01/11 08:03:19;;;;;;;0.43;0.43;;;;;7.60;93764.00;;;;7393790;19;20670;-76
2023/01/11 08:05:59;;;;;;;0.40;0.40;;;;;7.80;93762.00;;;;7395355;19;20144;-76
2023/01/11 08:08:27;;;;;;;0.30;0.30;;;;;7.80;93749.00;;;;7395124;19;20534;-77
2023/01/11 08:16:40;;;;;;;0.27;0.20;;;;;7.70;93743.00;;;;7394201;19;20490;-76
2023/01/11 08:19:14;;;;;;;0.23;0.23;;;;;7.70;93744.00;;;;7400210;19;20570;-75
2023/01/11 08:21:43;;;;;;;0.10;0.10;;;;;7.90;93757.00;;;;7400534;19;20212;-76
2023/01/11 08:24:17;;;;;;;0.20;0.20;;;;;7.90;93758.00;;;;7400189;19;20156;-76
2023/01/11 08:26:51;;;;;;;0.30;0.20;;;;;7.70;93759.00;;;;7402240;19;20591;-76
2023/01/11 08:29:18;;;;;;;0.20;0.20;;;;;7.90;93756.00;;;;7399865;19;20133;-76
2023/01/11 08:31:46;;;;;;;0.63;0.30;;;;;7.80;93761.00;;;;7402374;19;20158;-76
2023/01/11 08:34:21;;;;;;;0.53;0.37;;;;;7.80;93753.00;;;;7400377;19;20232;-76
2023/01/11 08:36:56;;;;;;;1.43;0.30;;;;;7.70;93757.00;;;;7398666;19;20137;-76
2023/01/11 08:39:30;;;;;;;0.30;0.30;;;;;7.70;93753.00;;;;7402313;19;20490;-76
2023/01/11 08:41:58;;;;;;;0.50;0.47;;;;;7.70;93761.00;;;;7400377;19;20547;-76
2023/01/11 08:44:33;;;;;;;0.70;0.47;;;;;7.50;93778.00;;;;7399948;19;20196;-76
2023/01/11 08:47:04;;;;;;;0.93;0.53;;;;;7.50;93770.00;;;;7401533;19;20162;-76
2023/01/11 08:49:41;;;;;;;0.70;0.63;;;;;7.50;93770.00;;;;7400024;19;20839;-76
2023/01/11 08:52:13;;;;;;;0.93;0.70;;;;;7.50;93764.00;;;;7398142;19;20149;-76
2023/01/11 08:54:47;;;;;;;0.80;0.60;;;;;7.50;93771.00;;;;7397734;19;20212;-76
2023/01/11 08:57:21;;;;;;;0.80;0.67;;;;;7.20;93769.00;;;;7399074;19;20125;-76
2023/01/11 08:59:55;;;;;;;0.50;0.40;;;;;7.50;93772.00;;;;7400404;19;20154;-76
2023/01/11 09:02:29;;;;;;;0.83;0.50;;;;;7.70;93770.00;;;;7398941;19;20546;-77
2023/01/11 09:05:10;;;;;;;0.70;0.50;;;;;7.50;93764.00;;;;7399098;19;20144;-76
2023/01/11 09:07:37;;;;;;;0.83;0.57;;;;;7.80;93770.00;;;;7400120;19;20141;-76
2023/01/11 09:10:11;;;;;;;0.60;0.40;;;;;8.00;93762.00;;;;7398987;19;20144;-76
2023/01/11 09:12:38;;;;;;;1.13;0.30;;;;;8.10;93774.00;;;;7398276;19;20139;-77
2023/01/11 09:15:07;;;;;;;0.20;0.20;;;;;8.20;93769.00;;;;7398614;19;20504;-76
2023/01/11 09:17:40;;;;;;;0.23;0.23;;;;;8.20;93774.00;;;;7392433;19;20612;-76
2023/01/11 09:20:15;;;;;;;0.47;0.37;;;;;8.20;93769.00;;;;7397064;19;20546;-76
2023/01/11 09:22:46;;;;;;;0.60;0.20;;;;;8.40;93774.00;;;;7397902;19;20212;-76
2023/01/11 09:25:21;;;;;;;0.20;0.20;;;;;8.30;93764.00;;;;7398702;19;20160;-77
2023/01/11 09:27:50;;;;;;;1.40;0.60;;;;;8.30;93777.00;;;;7399262;19;20152;-76
2023/01/11 09:30:24;;;;;;;0.30;0.30;;;;;8.20;93774.00;;;;7398140;19;20153;-77
2023/01/11 09:32:53;;;;;;;0.37;0.30;;;;;8.30;93782.00;;;;7398042;19;20603;-76
2023/01/11 09:35:27;;;;;;;0.23;0.23;;;;;8.30;93782.00;;;;7396021;19;20124;-76
2023/01/11 09:37:56;;;;;;;0.27;0.27;;;;;8.40;93792.00;;;;7394665;19;20186;-76
2023/01/11 09:41:00;;;;;;;0.30;0.10;;;;;8.40;93790.00;;;;7396467;19;20203;-76
2023/01/11 09:43:30;;;;;;;2.67;0.20;;;;;8.40;93784.00;;;;7395485;19;20157;-77
2023/01/11 09:46:07;;;;;;;0.63;0.30;;;;;8.50;93784.00;;;;7400793;19;20156;-76
2023/01/11 09:48:53;;;;;;;0.10;0.10;;;;;8.50;93776.00;;;;7398865;19;20607;-77
2023/01/11 09:51:34;;;;;;;0.27;0.20;;;;;8.60;93781.00;;;;7399240;19;20599;-76
2023/01/11 09:54:14;;;;;;;0.20;0.20;;;;;8.50;93781.00;;;;7396552;19;20158;-76
2023/01/11 09:56:57;;;;;;;0.10;0.10;;;;;8.40;93787.00;;;;7396475;19;20215;-76
2023/01/11 09:59:50;;;;;;;0.10;0.10;;;;;8.30;93790.00;;;;7389423;19;20196;-76
2023/01/11 10:03:09;;;;;;;0.07;0.03;;;;;8.50;93785.00;;;;7396199;19;20172;-76
2023/01/11 10:06:12;;;;;;;0.10;0.10;;;;;8.60;93796.00;;;;7396474;19;20167;-75
2023/01/11 10:08:56;;;;;;;0.30;0.27;;;;;8.50;93793.00;;;;7398171;19;20124;-75
2023/01/11 10:12:10;;;;;;;0.10;0.10;;;;;8.50;93785.00;;;;7397800;19;20128;-76
2023/01/11 10:15:18;;;;;;;0.03;0.03;;;;;8.40;93790.00;;;;7397905;19;20129;-77
2023/01/11 10:18:18;;;;;;;0.00;0.00;;;;;8.30;93786.00;;;;7391324;19;20129;-78
2023/01/11 10:21:53;;;;;;;0.00;0.00;;;;;8.30;93796.00;;;;7397382;19;20160;-78
2023/01/11 10:24:34;;;;;;;0.00;0.00;;;;;8.00;93781.00;;;;7399053;19;20153;-80
2023/01/11 10:27:36;;;;;;;1.27;0.20;;;;;8.10;93793.00;;;;7399517;19;20175;-80
2023/01/11 10:30:51;;;;;;;0.03;0.03;;;;;8.10;93792.00;;;;7398734;19;20497;-81
2023/01/11 10:47:10;;;;;;;0.00;0.00;;;;;8.10;93783.00;;;;7396036;19;20157;-80
2023/01/11 10:49:59;;;;;;;0.10;0.10;;;;;8.20;93787.00;;;;7399205;19;20144;-79
2023/01/11 10:52:39;;;;;;;0.40;0.10;;;;;8.10;93796.00;;;;7398088;19;20468;-79
2023/01/11 10:55:22;;;;;;;0.07;0.07;;;;;8.20;93799.00;;;;7397149;19;20641;-81
2023/01/11 10:58:11;;;;;;;0.00;0.00;;;;;8.00;93809.00;;;;7396783;19;20606;-81
2023/01/11 11:01:07;;;;;;;0.27;0.10;;;;;8.10;93790.00;;;;7397649;19;20471;-82
2023/01/11 11:04:04;;;;;;;0.00;0.00;;;;;8.20;93798.00;;;;7398141;19;20502;-83
2023/01/11 11:07:13;;;;;;;0.10;0.00;;;;;8.10;93791.00;;;;7397326;19;20661;-82
2023/01/11 11:10:00;;;;;;;0.33;0.10;;;;;8.10;93793.00;;;;7393294;19;20152;-79
2023/01/11 11:12:48;;;;;;;0.20;0.10;;;;;8.10;93800.00;;;;7396875;19;20164;-81
2023/01/11 11:15:43;;;;;;;0.00;0.00;;;;;8.10;93793.00;;;;7399681;19;20129;-81
2023/01/11 11:18:31;;;;;;;0.00;0.00;;;;;8.00;93786.00;;;;7398982;19;20501;-82
2023/01/11 11:21:20;;;;;;;0.00;0.00;;;;;8.10;93783.00;;;;7399537;19;20503;-80
2023/01/11 11:24:01;;;;;;;0.33;0.10;;;;;7.90;93781.00;;;;7398413;19;20564;-80
2023/01/11 11:26:38;;;;;;;0.47;0.07;;;;;7.90;93783.00;;;;7398859;19;20152;-80
2023/01/11 11:29:21;;;;;;;0.00;0.00;;;;;8.00;93783.00;;;;7398227;19;20614;-81
2023/01/11 11:31:58;;;;;;;0.20;0.00;;;;;8.10;93783.00;;;;7399414;19;20146;-79
2023/01/11 11:34:35;;;;;;;0.10;0.10;;;;;8.10;93777.00;;;;7396891;19;20614;-79
2023/01/11 11:37:03;;;;;;;0.00;0.00;;;;;8.00;93773.00;;;;7397507;19;20159;-79
2023/01/11 11:39:40;;;;;;;0.00;0.00;;;;;8.00;93779.00;;;;7397226;19;20160;-80
2023/01/11 11:42:20;;;;;;;0.13;0.07;;;;;8.10;93779.00;;;;7398260;19;20572;-80
2023/01/11 11:45:15;;;;;;;0.87;0.10;;;;;8.10;93786.00;;;;7394859;19;20623;-79
2023/01/11 11:48:01;;;;;;;0.33;0.17;;;;;8.00;93784.00;;;;7396854;19;20157;-79
2023/01/11 11:50:33;;;;;;;0.17;0.10;;;;;7.90;93790.00;;;;7397692;19;20156;-81
2023/01/11 11:53:52;;;;;;;0.47;0.27;;;;;8.00;93790.00;;;;7397354;19;20493;-80
2023/01/11 11:56:36;;;;;;;0.17;0.17;;;;;7.90;93793.00;;;;7396763;19;20162;-80
2023/01/11 11:59:16;;;;;;;0.10;0.10;;;;;7.90;93787.00;;;;7396126;19;20176;-80
2023/01/11 12:02:02;;;;;;;0.77;0.20;;;;;7.70;93787.00;;;;7392367;19;20646;-80
2023/01/11 12:04:53;;;;;;;0.23;0.20;;;;;7.80;93789.00;;;;7393359;19;20149;-81
2023/01/11 12:07:44;;;;;;;0.00;0.00;;;;;7.60;93789.00;;;;7394363;19;20652;-80
2023/01/11 12:10:27;;;;;;;0.30;0.10;;;;;7.70;93795.00;;;;7391441;19;20591;-80
2023/01/11 12:13:00;;;;;;;0.10;0.03;;;;;7.70;93795.00;;;;7395517;19;20137;-80
2023/01/11 12:15:35;;;;;;;0.20;0.20;;;;;7.70;93794.00;;;;7394626;19;20141;-80
2023/01/11 12:18:31;;;;;;;0.23;0.10;;;;;7.60;93799.00;;;;7390773;19;20204;-80
2023/01/11 12:21:20;;;;;;;0.03;0.03;;;;;7.60;93794.00;;;;7394204;19;20749;-80
2023/01/11 12:24:07;;;;;;;1.13;0.03;;;;;7.60;93790.00;;;;7393030;19;20144;-79
2023/01/11 12:27:03;;;;;;;0.00;0.00;;;;;7.40;93798.00;;;;7394277;19;20175;-82
2023/01/11 12:30:08;;;;;;;0.10;0.00;;;;;7.50;93788.00;;;;7391056;19;20160;-81
2023/01/11 12:33:11;;;;;;;0.33;0.20;;;;;7.40;93790.00;;;;7393013;19;20611;-81
2023/01/11 12:36:04;;;;;;;0.00;0.00;;;;;7.60;93790.00;;;;7393605;19;20510;-82
2023/01/11 12:38:42;;;;;;;0.20;0.20;;;;;7.60;93777.00;;;;7388926;19;20152;-82
2023/01/11 12:42:02;;;;;;;0.20;0.10;;;;;7.40;93780.00;;;;7392967;19;20157;-81
2023/01/11 12:45:08;;;;;;;0.10;0.03;;;;;7.60;93785.00;;;;7388902;19;20160;-81
2023/01/11 12:48:14;;;;;;;0.10;0.10;;;;;7.60;93801.00;;;;7388469;19;20196;-82
2023/01/11 12:51:36;;;;;;;1.40;0.10;;;;;7.70;93791.00;;;;7390730;19;20155;-82
2023/01/11 12:54:28;;;;;;;0.03;0.03;;;;;7.70;93798.00;;;;7387628;19;20157;-81
2023/01/11 12:57:14;;;;;;;0.33;0.10;;;;;7.70;93782.00;;;;7396939;19;20180;-80
2023/01/11 13:00:05;;;;;;;0.40;0.17;;;;;7.80;93789.00;;;;7397015;19;20640;-80
2023/01/11 13:03:07;;;;;;;0.23;0.07;;;;;7.70;93780.00;;;;7391750;19;20180;-81
2023/01/11 13:06:08;;;;;;;0.00;0.00;;;;;7.60;93792.00;;;;7393726;19;20647;-79
2023/01/11 13:09:12;;;;;;;0.17;0.17;;;;;7.50;93792.00;;;;7395419;19;20175;-80
2023/01/11 13:12:14;;;;;;;0.13;0.10;;;;;7.50;93787.00;;;;7393313;19;20644;-80
2023/01/11 13:15:04;;;;;;;0.30;0.10;;;;;7.30;93800.00;;;;7396284;19;20180;-80
2023/01/11 13:17:54;;;;;;;0.00;0.00;;;;;7.40;93812.00;;;;7391896;19;20149;-80
2023/01/11 13:20:54;;;;;;;0.00;0.00;;;;;7.40;93816.00;;;;7397295;19;20819;-80
2023/01/11 13:23:37;;;;;;;0.00;0.00;;;;;7.40;93821.00;;;;7400451;19;20160;-79
2023/01/11 13:26:25;;;;;;;0.43;0.10;;;;;7.40;93820.00;;;;7398686;19;20196;-79
2023/01/11 13:29:03;;;;;;;0.00;0.00;;;;;7.30;93823.00;;;;7399857;19;20121;-79
2023/01/11 13:31:37;;;;;;;0.57;0.10;;;;;7.20;93827.00;;;;7399970;19;20145;-80
2023/01/11 13:34:31;;;;;;;0.00;0.00;;;;;7.20;93826.00;;;;7399416;19;20641;-79
2023/01/11 13:37:06;;;;;;;1.30;0.10;;;;;7.20;93832.00;;;;7398426;19;20149;-79
2023/01/11 13:39:57;;;;;;;2.93;0.43;;;;;6.90;93836.00;;;;7399760;19;20141;-80
2023/01/11 13:42:37;;;;;;;0.37;0.30;;;;;7.00;93832.00;;;;7399011;19;20273;-79
2023/01/11 13:45:26;;;;;;;0.37;0.10;;;;;7.00;93845.00;;;;7399775;19;20147;-79
2023/01/11 13:48:26;;;;;;;0.10;0.10;;;;;6.90;93844.00;;;;7399132;19;20145;-80
2023/01/11 13:51:22;;;;;;;0.10;0.10;;;;;7.00;93841.00;;;;7399951;19;20133;-80
2023/01/11 13:54:12;;;;;;;1.73;0.10;;;;;7.30;93846.00;;;;7397520;19;20129;-79
2023/01/11 13:57:02;;;;;;;0.27;0.10;;;;;7.10;93850.00;;;;7396554;19;20143;-80
2023/01/11 13:59:46;;;;;;;0.20;0.20;;;;;7.10;93859.00;;;;7398731;19;20141;-80
2023/01/11 14:02:40;;;;;;;0.20;0.20;;;;;6.90;93865.00;;;;7392701;19;20626;-80
2023/01/11 14:05:20;;;;;;;0.40;0.20;;;;;6.90;93863.00;;;;7395451;19;20684;-80
2023/01/11 14:08:53;;;;;;;0.20;0.20;;;;;6.60;93863.00;;;;7398839;19;20161;-80
2023/01/11 14:11:46;;;;;;;1.20;0.33;;;;;6.50;93865.00;;;;7395669;19;20137;-80
2023/01/11 14:14:42;;;;;;;0.63;0.50;;;;;6.70;93869.00;;;;7394763;19;20534;-80
2023/01/11 14:17:48;;;;;;;1.53;0.40;;;;;6.50;93881.00;;;;7393847;19;20148;-80